KSAC/SAC METAR and TAF weather

Enter ICAO airport designator
Station Type Date Time Source
KSAC METAR 2020/06/06 02:53 UTC NOAA

KSAC 060253Z 21012G22KT 10SM FU CLR 18/08 A2972 RMK AO2 PK WND 21029/0236 SLP063 T01780083 53013


Station Type Date Time Source
KSAC Decoded METAR 2020/06/06 02:53 UTC NOAA

SACRAMENTO EXECUTIVE AIRPORT , CA, United States (KSAC) 38-30N 121-30W 11M
Jun 05, 2020 - 10:53 PM EDT / 2020.06.06 0253 UTC
Wind: from the SSW (210 degrees) at 14 MPH (12 KT) gusting to 25 MPH (22 KT):0
Visibility: 10 mile(s):0
Sky conditions: clear
Weather: smoke
Temperature: 64.0 F (17.8 C)
Dew Point: 46.9 F (8.3 C)
Relative Humidity: 53%
Pressure (altimeter): 29.72 in. Hg (1006 hPa)
Pressure tendency: 0.04 inches (1.3 hPa) higher than three hours ago
ob: KSAC 060253Z 21012G22KT 10SM FU CLR 18/08 A2972 RMK AO2 PK WND 21029/0236 SLP063 T01780083 53013
cycle: 3

Station Type Date Time Source
KSAC TAF 2020/06/05 18:36 UTC NOAA

TAF KSAC 051734Z 0518/0618 20015G22KT P6SM SKC
FM060600 18012KT P6SM BKN100

Example: see airport list